sensor_id;sensor_type;location;lat;lon;timestamp;P1;durP1;ratioP1;P2;durP2;ratioP2
22068;SDS011;13887;57.196;-2.100;2023-06-01T00:00:25;10.93;;;10.63;;
22068;SDS011;13887;57.196;-2.100;2023-06-01T00:02:52;11.27;;;10.93;;
22068;SDS011;13887;57.196;-2.100;2023-06-01T00:05:19;11.70;;;11.30;;
22068;SDS011;13887;57.196;-2.100;2023-06-01T00:07:48;11.07;;;10.77;;
22068;SDS011;13887;57.196;-2.100;2023-06-01T00:10:15;11.03;;;10.73;;
22068;SDS011;13887;57.196;-2.100;2023-06-01T00:12:42;10.83;;;10.53;;
22068;SDS011;13887;57.196;-2.100;2023-06-01T00:15:09;10.43;;;10.13;;
22068;SDS011;13887;57.196;-2.100;2023-06-01T00:17:37;10.70;;;10.40;;
22068;SDS011;13887;57.196;-2.100;2023-06-01T00:20:04;10.87;;;10.57;;
22068;SDS011;13887;57.196;-2.100;2023-06-01T00:22:35;10.53;;;10.23;;
22068;SDS011;13887;57.196;-2.100;2023-06-01T00:25:06;10.70;;;10.40;;
22068;SDS011;13887;57.196;-2.100;2023-06-01T00:27:34;10.60;;;10.30;;
22068;SDS011;13887;57.196;-2.100;2023-06-01T00:30:02;10.60;;;10.30;;
22068;SDS011;13887;57.196;-2.100;2023-06-01T00:32:31;11.10;;;10.80;;
22068;SDS011;13887;57.196;-2.100;2023-06-01T00:34:58;10.47;;;10.17;;
22068;SDS011;13887;57.196;-2.100;2023-06-01T00:37:25;10.53;;;10.23;;
22068;SDS011;13887;57.196;-2.100;2023-06-01T00:39:52;11.10;;;10.80;;
22068;SDS011;13887;57.196;-2.100;2023-06-01T00:42:37;11.10;;;10.80;;
22068;SDS011;13887;57.196;-2.100;2023-06-01T00:45:04;10.80;;;10.50;;
22068;SDS011;13887;57.196;-2.100;2023-06-01T00:47:33;11.40;;;11.00;;
22068;SDS011;13887;57.196;-2.100;2023-06-01T00:50:12;11.20;;;10.90;;
22068;SDS011;13887;57.196;-2.100;2023-06-01T00:52:39;11.67;;;11.27;;
22068;SDS011;13887;57.196;-2.100;2023-06-01T00:55:08;11.20;;;10.90;;
22068;SDS011;13887;57.196;-2.100;2023-06-01T00:57:38;10.97;;;10.67;;
22068;SDS011;13887;57.196;-2.100;2023-06-01T01:00:06;10.93;;;10.63;;
22068;SDS011;13887;57.196;-2.100;2023-06-01T01:02:38;10.73;;;10.43;;
22068;SDS011;13887;57.196;-2.100;2023-06-01T01:05:07;11.10;;;10.80;;
22068;SDS011;13887;57.196;-2.100;2023-06-01T01:13:34;10.17;;;9.87;;
22068;SDS011;13887;57.196;-2.100;2023-06-01T01:30:42;11.03;;;10.73;;
22068;SDS011;13887;57.196;-2.100;2023-06-01T01:33:11;11.03;;;10.73;;
22068;SDS011;13887;57.196;-2.100;2023-06-01T01:35:39;11.40;;;11.00;;
22068;SDS011;13887;57.196;-2.100;2023-06-01T01:38:08;10.83;;;10.53;;
22068;SDS011;13887;57.196;-2.100;2023-06-01T01:40:35;10.67;;;10.37;;
22068;SDS011;13887;57.196;-2.100;2023-06-01T01:43:02;10.83;;;10.53;;
22068;SDS011;13887;57.196;-2.100;2023-06-01T01:45:29;10.70;;;10.40;;
22068;SDS011;13887;57.196;-2.100;2023-06-01T01:48:05;10.90;;;10.60;;
22068;SDS011;13887;57.196;-2.100;2023-06-01T01:50:38;10.90;;;10.60;;
22068;SDS011;13887;57.196;-2.100;2023-06-01T01:53:13;11.43;;;11.03;;
22068;SDS011;13887;57.196;-2.100;2023-06-01T01:55:43;11.00;;;10.70;;
22068;SDS011;13887;57.196;-2.100;2023-06-01T01:58:12;11.40;;;11.00;;
22068;SDS011;13887;57.196;-2.100;2023-06-01T02:00:41;10.93;;;10.63;;
22068;SDS011;13887;57.196;-2.100;2023-06-01T02:03:14;11.10;;;10.80;;
22068;SDS011;13887;57.196;-2.100;2023-06-01T02:05:43;10.73;;;10.43;;
22068;SDS011;13887;57.196;-2.100;2023-06-01T02:08:11;10.70;;;10.40;;
22068;SDS011;13887;57.196;-2.100;2023-06-01T02:10:38;10.90;;;10.60;;
22068;SDS011;13887;57.196;-2.100;2023-06-01T02:13:07;10.87;;;10.57;;
22068;SDS011;13887;57.196;-2.100;2023-06-01T02:15:36;11.00;;;10.70;;
22068;SDS011;13887;57.196;-2.100;2023-06-01T02:18:03;10.77;;;10.47;;
22068;SDS011;13887;57.196;-2.100;2023-06-01T02:20:47;11.50;;;11.10;;
22068;SDS011;13887;57.196;-2.100;2023-06-01T02:23:32;11.47;;;11.07;;
22068;SDS011;13887;57.196;-2.100;2023-06-01T02:26:17;11.23;;;10.90;;
22068;SDS011;13887;57.196;-2.100;2023-06-01T02:29:02;10.97;;;10.67;;
22068;SDS011;13887;57.196;-2.100;2023-06-01T02:31:49;10.90;;;10.60;;
22068;SDS011;13887;57.196;-2.100;2023-06-01T02:34:37;10.97;;;10.67;;
22068;SDS011;13887;57.196;-2.100;2023-06-01T02:37:22;11.40;;;11.00;;
22068;SDS011;13887;57.196;-2.100;2023-06-01T02:40:07;10.63;;;10.33;;
22068;SDS011;13887;57.196;-2.100;2023-06-01T02:42:55;11.07;;;10.77;;
22068;SDS011;13887;57.196;-2.100;2023-06-01T02:45:40;10.77;;;10.47;;
22068;SDS011;13887;57.196;-2.100;2023-06-01T02:48:24;11.23;;;10.90;;
22068;SDS011;13887;57.196;-2.100;2023-06-01T02:50:51;10.93;;;10.63;;
22068;SDS011;13887;57.196;-2.100;2023-06-01T02:53:19;10.87;;;10.57;;
22068;SDS011;13887;57.196;-2.100;2023-06-01T02:55:47;10.87;;;10.57;;
22068;SDS011;13887;57.196;-2.100;2023-06-01T02:58:37;11.00;;;10.70;;
22068;SDS011;13887;57.196;-2.100;2023-06-01T03:01:11;10.83;;;10.53;;
22068;SDS011;13887;57.196;-2.100;2023-06-01T03:03:38;10.90;;;10.60;;
22068;SDS011;13887;57.196;-2.100;2023-06-01T03:06:05;10.30;;;10.00;;
22068;SDS011;13887;57.196;-2.100;2023-06-01T03:08:50;10.40;;;10.10;;
22068;SDS011;13887;57.196;-2.100;2023-06-01T03:11:44;10.63;;;10.33;;
22068;SDS011;13887;57.196;-2.100;2023-06-01T03:14:11;10.80;;;10.50;;
22068;SDS011;13887;57.196;-2.100;2023-06-01T03:16:38;10.57;;;10.27;;
22068;SDS011;13887;57.196;-2.100;2023-06-01T03:19:15;10.97;;;10.67;;
22068;SDS011;13887;57.196;-2.100;2023-06-01T03:21:45;11.03;;;10.73;;
22068;SDS011;13887;57.196;-2.100;2023-06-01T03:24:16;10.60;;;10.30;;
22068;SDS011;13887;57.196;-2.100;2023-06-01T03:26:44;10.93;;;10.63;;
22068;SDS011;13887;57.196;-2.100;2023-06-01T03:29:11;10.83;;;10.53;;
22068;SDS011;13887;57.196;-2.100;2023-06-01T03:31:39;10.83;;;10.53;;
22068;SDS011;13887;57.196;-2.100;2023-06-01T03:34:09;10.53;;;10.23;;
22068;SDS011;13887;57.196;-2.100;2023-06-01T03:36:36;10.77;;;10.47;;
22068;SDS011;13887;57.196;-2.100;2023-06-01T03:39:04;10.80;;;10.50;;
22068;SDS011;13887;57.196;-2.100;2023-06-01T03:41:36;11.03;;;10.73;;
22068;SDS011;13887;57.196;-2.100;2023-06-01T03:44:04;11.17;;;10.87;;
22068;SDS011;13887;57.196;-2.100;2023-06-01T03:46:31;10.43;;;10.13;;
22068;SDS011;13887;57.196;-2.100;2023-06-01T03:48:58;12.10;;;11.70;;
22068;SDS011;13887;57.196;-2.100;2023-06-01T03:51:25;10.87;;;10.57;;
22068;SDS011;13887;57.196;-2.100;2023-06-01T03:53:53;10.97;;;10.67;;
22068;SDS011;13887;57.196;-2.100;2023-06-01T03:56:20;11.00;;;10.70;;
22068;SDS011;13887;57.196;-2.100;2023-06-01T03:58:51;10.80;;;10.50;;
22068;SDS011;13887;57.196;-2.100;2023-06-01T04:01:18;10.90;;;10.60;;
22068;SDS011;13887;57.196;-2.100;2023-06-01T04:03:47;11.13;;;10.83;;
22068;SDS011;13887;57.196;-2.100;2023-06-01T04:06:15;11.33;;;10.97;;
22068;SDS011;13887;57.196;-2.100;2023-06-01T04:08:46;11.40;;;11.00;;
22068;SDS011;13887;57.196;-2.100;2023-06-01T04:11:22;10.87;;;10.57;;
22068;SDS011;13887;57.196;-2.100;2023-06-01T04:13:50;11.13;;;10.83;;
22068;SDS011;13887;57.196;-2.100;2023-06-01T04:16:18;11.03;;;10.73;;
22068;SDS011;13887;57.196;-2.100;2023-06-01T04:18:45;10.83;;;10.53;;
22068;SDS011;13887;57.196;-2.100;2023-06-01T04:21:22;10.60;;;10.30;;
22068;SDS011;13887;57.196;-2.100;2023-06-01T04:23:50;11.23;;;10.90;;
22068;SDS011;13887;57.196;-2.100;2023-06-01T04:26:21;11.13;;;10.83;;
22068;SDS011;13887;57.196;-2.100;2023-06-01T04:28:48;11.20;;;10.90;;
22068;SDS011;13887;57.196;-2.100;2023-06-01T04:31:16;11.40;;;11.00;;
22068;SDS011;13887;57.196;-2.100;2023-06-01T04:33:45;11.07;;;10.77;;
22068;SDS011;13887;57.196;-2.100;2023-06-01T04:36:24;11.17;;;10.87;;
22068;SDS011;13887;57.196;-2.100;2023-06-01T04:38:57;11.37;;;10.97;;
22068;SDS011;13887;57.196;-2.100;2023-06-01T04:41:25;10.83;;;10.53;;
22068;SDS011;13887;57.196;-2.100;2023-06-01T04:43:52;11.60;;;11.20;;
22068;SDS011;13887;57.196;-2.100;2023-06-01T04:46:23;11.67;;;11.27;;
22068;SDS011;13887;57.196;-2.100;2023-06-01T04:48:56;12.03;;;11.63;;
22068;SDS011;13887;57.196;-2.100;2023-06-01T04:51:27;11.80;;;11.40;;
22068;SDS011;13887;57.196;-2.100;2023-06-01T04:53:55;11.53;;;11.13;;
22068;SDS011;13887;57.196;-2.100;2023-06-01T04:56:24;11.93;;;11.53;;
22068;SDS011;13887;57.196;-2.100;2023-06-01T04:58:54;11.60;;;11.20;;
22068;SDS011;13887;57.196;-2.100;2023-06-01T05:01:25;12.10;;;11.70;;
22068;SDS011;13887;57.196;-2.100;2023-06-01T05:03:57;14.30;;;13.80;;
22068;SDS011;13887;57.196;-2.100;2023-06-01T05:06:24;12.30;;;11.90;;
22068;SDS011;13887;57.196;-2.100;2023-06-01T05:08:53;12.60;;;12.20;;
22068;SDS011;13887;57.196;-2.100;2023-06-01T05:11:21;12.60;;;12.20;;
22068;SDS011;13887;57.196;-2.100;2023-06-01T05:13:49;12.33;;;11.93;;
22068;SDS011;13887;57.196;-2.100;2023-06-01T05:16:19;12.30;;;11.90;;
22068;SDS011;13887;57.196;-2.100;2023-06-01T05:18:47;12.13;;;11.73;;
22068;SDS011;13887;57.196;-2.100;2023-06-01T05:21:16;11.77;;;11.37;;
22068;SDS011;13887;57.196;-2.100;2023-06-01T05:23:43;11.93;;;11.53;;
22068;SDS011;13887;57.196;-2.100;2023-06-01T05:26:11;12.40;;;12.00;;
22068;SDS011;13887;57.196;-2.100;2023-06-01T05:28:40;12.23;;;11.83;;
22068;SDS011;13887;57.196;-2.100;2023-06-01T05:31:10;12.33;;;11.93;;
22068;SDS011;13887;57.196;-2.100;2023-06-01T05:33:44;11.50;;;11.10;;
22068;SDS011;13887;57.196;-2.100;2023-06-01T05:36:13;11.77;;;11.37;;
22068;SDS011;13887;57.196;-2.100;2023-06-01T05:38:43;11.83;;;11.43;;
22068;SDS011;13887;57.196;-2.100;2023-06-01T05:41:11;11.40;;;11.00;;
22068;SDS011;13887;57.196;-2.100;2023-06-01T05:43:38;11.50;;;11.10;;
22068;SDS011;13887;57.196;-2.100;2023-06-01T05:46:06;11.90;;;11.50;;
22068;SDS011;13887;57.196;-2.100;2023-06-01T05:48:36;11.70;;;11.30;;
22068;SDS011;13887;57.196;-2.100;2023-06-01T05:51:08;11.27;;;10.90;;
22068;SDS011;13887;57.196;-2.100;2023-06-01T05:53:35;10.97;;;10.67;;
22068;SDS011;13887;57.196;-2.100;2023-06-01T05:56:02;12.03;;;11.63;;
22068;SDS011;13887;57.196;-2.100;2023-06-01T05:58:31;11.80;;;11.40;;
22068;SDS011;13887;57.196;-2.100;2023-06-01T06:00:58;12.00;;;11.60;;
22068;SDS011;13887;57.196;-2.100;2023-06-01T06:03:26;11.93;;;11.53;;
22068;SDS011;13887;57.196;-2.100;2023-06-01T06:05:55;12.33;;;11.93;;
22068;SDS011;13887;57.196;-2.100;2023-06-01T06:08:24;12.07;;;11.67;;
22068;SDS011;13887;57.196;-2.100;2023-06-01T06:10:51;11.90;;;11.50;;
22068;SDS011;13887;57.196;-2.100;2023-06-01T06:13:21;12.27;;;11.87;;
22068;SDS011;13887;57.196;-2.100;2023-06-01T06:15:48;12.47;;;12.07;;
22068;SDS011;13887;57.196;-2.100;2023-06-01T06:18:15;12.80;;;12.40;;
22068;SDS011;13887;57.196;-2.100;2023-06-01T06:20:44;12.63;;;12.23;;
22068;SDS011;13887;57.196;-2.100;2023-06-01T06:23:11;12.20;;;11.80;;
22068;SDS011;13887;57.196;-2.100;2023-06-01T06:25:45;12.77;;;12.37;;
22068;SDS011;13887;57.196;-2.100;2023-06-01T06:28:12;12.40;;;12.00;;
22068;SDS011;13887;57.196;-2.100;2023-06-01T06:30:39;12.83;;;12.43;;
22068;SDS011;13887;57.196;-2.100;2023-06-01T06:33:06;12.53;;;12.13;;
22068;SDS011;13887;57.196;-2.100;2023-06-01T06:35:39;12.53;;;12.13;;
22068;SDS011;13887;57.196;-2.100;2023-06-01T06:38:11;12.30;;;11.90;;
22068;SDS011;13887;57.196;-2.100;2023-06-01T06:40:39;12.33;;;11.93;;
22068;SDS011;13887;57.196;-2.100;2023-06-01T06:43:07;12.43;;;12.03;;
22068;SDS011;13887;57.196;-2.100;2023-06-01T06:45:34;12.33;;;11.93;;
22068;SDS011;13887;57.196;-2.100;2023-06-01T06:48:01;12.20;;;11.80;;
22068;SDS011;13887;57.196;-2.100;2023-06-01T06:50:28;12.37;;;11.97;;
22068;SDS011;13887;57.196;-2.100;2023-06-01T06:52:55;12.30;;;11.90;;
22068;SDS011;13887;57.196;-2.100;2023-06-01T06:55:22;12.10;;;11.70;;
22068;SDS011;13887;57.196;-2.100;2023-06-01T06:57:49;11.70;;;11.30;;
22068;SDS011;13887;57.196;-2.100;2023-06-01T07:00:17;12.27;;;11.87;;
22068;SDS011;13887;57.196;-2.100;2023-06-01T07:02:45;11.83;;;11.43;;
22068;SDS011;13887;57.196;-2.100;2023-06-01T07:05:15;11.90;;;11.50;;
22068;SDS011;13887;57.196;-2.100;2023-06-01T07:07:42;12.27;;;11.87;;
22068;SDS011;13887;57.196;-2.100;2023-06-01T07:10:09;11.90;;;11.50;;
22068;SDS011;13887;57.196;-2.100;2023-06-01T07:12:40;11.93;;;11.53;;
22068;SDS011;13887;57.196;-2.100;2023-06-01T07:15:08;11.93;;;11.53;;
22068;SDS011;13887;57.196;-2.100;2023-06-01T07:17:38;11.93;;;11.53;;
22068;SDS011;13887;57.196;-2.100;2023-06-01T07:20:06;12.23;;;11.83;;
22068;SDS011;13887;57.196;-2.100;2023-06-01T07:22:34;12.20;;;11.80;;
22068;SDS011;13887;57.196;-2.100;2023-06-01T07:25:05;11.80;;;11.40;;
22068;SDS011;13887;57.196;-2.100;2023-06-01T07:27:33;11.53;;;11.13;;
22068;SDS011;13887;57.196;-2.100;2023-06-01T07:30:02;12.07;;;11.67;;
22068;SDS011;13887;57.196;-2.100;2023-06-01T07:32:30;12.40;;;12.00;;
22068;SDS011;13887;57.196;-2.100;2023-06-01T07:34:58;11.87;;;11.47;;
22068;SDS011;13887;57.196;-2.100;2023-06-01T07:37:26;12.07;;;11.67;;
22068;SDS011;13887;57.196;-2.100;2023-06-01T07:39:54;11.87;;;11.47;;
22068;SDS011;13887;57.196;-2.100;2023-06-01T07:42:24;11.97;;;11.57;;
22068;SDS011;13887;57.196;-2.100;2023-06-01T07:44:52;12.07;;;11.67;;
22068;SDS011;13887;57.196;-2.100;2023-06-01T07:47:20;11.70;;;11.30;;
22068;SDS011;13887;57.196;-2.100;2023-06-01T07:49:48;12.17;;;11.77;;
22068;SDS011;13887;57.196;-2.100;2023-06-01T07:52:15;12.50;;;12.10;;
22068;SDS011;13887;57.196;-2.100;2023-06-01T07:54:44;12.50;;;12.10;;
22068;SDS011;13887;57.196;-2.100;2023-06-01T07:57:11;12.93;;;12.53;;
22068;SDS011;13887;57.196;-2.100;2023-06-01T07:59:38;12.80;;;12.40;;
22068;SDS011;13887;57.196;-2.100;2023-06-01T08:02:10;12.43;;;12.03;;
22068;SDS011;13887;57.196;-2.100;2023-06-01T08:04:38;12.47;;;12.07;;
22068;SDS011;13887;57.196;-2.100;2023-06-01T08:07:05;12.50;;;12.10;;
22068;SDS011;13887;57.196;-2.100;2023-06-01T08:09:35;12.13;;;11.73;;
22068;SDS011;13887;57.196;-2.100;2023-06-01T08:12:06;12.50;;;12.10;;
22068;SDS011;13887;57.196;-2.100;2023-06-01T08:14:33;12.17;;;11.77;;
22068;SDS011;13887;57.196;-2.100;2023-06-01T08:17:02;12.07;;;11.67;;
22068;SDS011;13887;57.196;-2.100;2023-06-01T08:19:31;12.23;;;11.83;;
22068;SDS011;13887;57.196;-2.100;2023-06-01T08:22:01;12.30;;;11.90;;
22068;SDS011;13887;57.196;-2.100;2023-06-01T08:24:33;12.00;;;11.60;;
22068;SDS011;13887;57.196;-2.100;2023-06-01T08:27:16;12.37;;;11.97;;
22068;SDS011;13887;57.196;-2.100;2023-06-01T08:29:52;12.30;;;11.90;;
22068;SDS011;13887;57.196;-2.100;2023-06-01T08:32:21;12.10;;;11.70;;
22068;SDS011;13887;57.196;-2.100;2023-06-01T08:34:49;12.10;;;11.70;;
22068;SDS011;13887;57.196;-2.100;2023-06-01T08:37:18;12.20;;;11.80;;
22068;SDS011;13887;57.196;-2.100;2023-06-01T08:39:45;12.70;;;12.30;;
22068;SDS011;13887;57.196;-2.100;2023-06-01T08:42:34;12.80;;;12.40;;
22068;SDS011;13887;57.196;-2.100;2023-06-01T08:45:12;12.37;;;11.97;;
22068;SDS011;13887;57.196;-2.100;2023-06-01T08:47:40;11.77;;;11.37;;
22068;SDS011;13887;57.196;-2.100;2023-06-01T08:50:09;12.00;;;11.60;;
22068;SDS011;13887;57.196;-2.100;2023-06-01T08:52:38;12.23;;;11.83;;
22068;SDS011;13887;57.196;-2.100;2023-06-01T08:55:08;12.23;;;11.83;;
22068;SDS011;13887;57.196;-2.100;2023-06-01T08:57:35;12.17;;;11.77;;
22068;SDS011;13887;57.196;-2.100;2023-06-01T09:00:06;12.83;;;12.43;;
22068;SDS011;13887;57.196;-2.100;2023-06-01T09:02:35;12.63;;;12.23;;
22068;SDS011;13887;57.196;-2.100;2023-06-01T09:05:02;12.43;;;12.03;;
22068;SDS011;13887;57.196;-2.100;2023-06-01T09:07:30;12.90;;;12.50;;
22068;SDS011;13887;57.196;-2.100;2023-06-01T09:10:00;12.50;;;12.10;;
22068;SDS011;13887;57.196;-2.100;2023-06-01T09:12:30;12.37;;;11.97;;
22068;SDS011;13887;57.196;-2.100;2023-06-01T09:15:09;12.50;;;12.10;;
22068;SDS011;13887;57.196;-2.100;2023-06-01T09:17:44;12.40;;;12.00;;
22068;SDS011;13887;57.196;-2.100;2023-06-01T09:20:23;12.50;;;12.10;;
22068;SDS011;13887;57.196;-2.100;2023-06-01T09:22:54;12.03;;;11.63;;
22068;SDS011;13887;57.196;-2.100;2023-06-01T09:25:28;12.23;;;11.83;;
22068;SDS011;13887;57.196;-2.100;2023-06-01T09:28:00;12.30;;;11.90;;
22068;SDS011;13887;57.196;-2.100;2023-06-01T09:30:38;12.47;;;12.07;;
22068;SDS011;13887;57.196;-2.100;2023-06-01T09:33:10;12.70;;;12.30;;
22068;SDS011;13887;57.196;-2.100;2023-06-01T09:35:42;12.07;;;11.67;;
22068;SDS011;13887;57.196;-2.100;2023-06-01T09:38:10;11.97;;;11.57;;
22068;SDS011;13887;57.196;-2.100;2023-06-01T09:40:38;11.90;;;11.50;;
22068;SDS011;13887;57.196;-2.100;2023-06-01T09:43:20;12.30;;;11.90;;
22068;SDS011;13887;57.196;-2.100;2023-06-01T09:48:34;12.70;;;12.30;;
22068;SDS011;13887;57.196;-2.100;2023-06-01T09:51:03;12.60;;;12.20;;
22068;SDS011;13887;57.196;-2.100;2023-06-01T09:53:41;12.40;;;12.00;;
22068;SDS011;13887;57.196;-2.100;2023-06-01T09:56:09;12.80;;;12.40;;
22068;SDS011;13887;57.196;-2.100;2023-06-01T09:58:38;12.67;;;12.27;;
22068;SDS011;13887;57.196;-2.100;2023-06-01T10:01:07;12.50;;;12.10;;
22068;SDS011;13887;57.196;-2.100;2023-06-01T10:03:37;12.80;;;12.40;;
22068;SDS011;13887;57.196;-2.100;2023-06-01T10:06:12;12.40;;;12.00;;
22068;SDS011;13887;57.196;-2.100;2023-06-01T10:08:43;12.20;;;11.80;;
22068;SDS011;13887;57.196;-2.100;2023-06-01T10:11:10;12.30;;;11.90;;
22068;SDS011;13887;57.196;-2.100;2023-06-01T10:13:38;12.17;;;11.77;;
22068;SDS011;13887;57.196;-2.100;2023-06-01T10:16:06;12.07;;;11.67;;
22068;SDS011;13887;57.196;-2.100;2023-06-01T10:18:34;12.60;;;12.20;;
22068;SDS011;13887;57.196;-2.100;2023-06-01T10:21:02;12.30;;;11.90;;
22068;SDS011;13887;57.196;-2.100;2023-06-01T10:23:34;12.20;;;11.80;;
22068;SDS011;13887;57.196;-2.100;2023-06-01T10:26:05;12.27;;;11.87;;
22068;SDS011;13887;57.196;-2.100;2023-06-01T10:28:37;12.47;;;12.07;;
22068;SDS011;13887;57.196;-2.100;2023-06-01T10:34:10;12.20;;;11.80;;
22068;SDS011;13887;57.196;-2.100;2023-06-01T10:39:28;12.40;;;12.00;;
22068;SDS011;13887;57.196;-2.100;2023-06-01T10:41:57;12.40;;;12.00;;
22068;SDS011;13887;57.196;-2.100;2023-06-01T10:44:44;12.50;;;12.10;;
22068;SDS011;13887;57.196;-2.100;2023-06-01T10:57:34;12.17;;;11.77;;
22068;SDS011;13887;57.196;-2.100;2023-06-01T11:02:47;11.87;;;11.47;;
22068;SDS011;13887;57.196;-2.100;2023-06-01T11:05:41;12.03;;;11.63;;
22068;SDS011;13887;57.196;-2.100;2023-06-01T11:13:19;12.40;;;12.00;;
22068;SDS011;13887;57.196;-2.100;2023-06-01T11:21:08;12.47;;;12.07;;
22068;SDS011;13887;57.196;-2.100;2023-06-01T11:23:48;13.17;;;12.77;;
22068;SDS011;13887;57.196;-2.100;2023-06-01T11:26:17;12.53;;;12.13;;
22068;SDS011;13887;57.196;-2.100;2023-06-01T11:28:46;12.23;;;11.83;;
22068;SDS011;13887;57.196;-2.100;2023-06-01T11:31:15;12.20;;;11.80;;
22068;SDS011;13887;57.196;-2.100;2023-06-01T11:33:48;12.10;;;11.70;;
22068;SDS011;13887;57.196;-2.100;2023-06-01T11:36:21;12.70;;;12.30;;
22068;SDS011;13887;57.196;-2.100;2023-06-01T11:38:53;12.33;;;11.93;;
22068;SDS011;13887;57.196;-2.100;2023-06-01T11:41:23;12.13;;;11.73;;
22068;SDS011;13887;57.196;-2.100;2023-06-01T11:43:54;12.43;;;12.03;;
22068;SDS011;13887;57.196;-2.100;2023-06-01T11:46:26;12.17;;;11.77;;
22068;SDS011;13887;57.196;-2.100;2023-06-01T11:51:31;12.10;;;11.70;;
22068;SDS011;13887;57.196;-2.100;2023-06-01T11:54:00;12.00;;;11.60;;
22068;SDS011;13887;57.196;-2.100;2023-06-01T11:56:30;12.00;;;11.60;;
22068;SDS011;13887;57.196;-2.100;2023-06-01T11:58:59;12.10;;;11.70;;
22068;SDS011;13887;57.196;-2.100;2023-06-01T12:01:28;11.50;;;11.10;;
22068;SDS011;13887;57.196;-2.100;2023-06-01T12:03:57;11.73;;;11.33;;
22068;SDS011;13887;57.196;-2.100;2023-06-01T12:06:24;12.03;;;11.63;;
22068;SDS011;13887;57.196;-2.100;2023-06-01T12:08:55;12.00;;;11.60;;
22068;SDS011;13887;57.196;-2.100;2023-06-01T12:11:23;11.37;;;10.97;;
22068;SDS011;13887;57.196;-2.100;2023-06-01T12:13:55;12.30;;;11.90;;
22068;SDS011;13887;57.196;-2.100;2023-06-01T12:16:42;12.10;;;11.70;;
22068;SDS011;13887;57.196;-2.100;2023-06-01T12:19:27;12.23;;;11.83;;
22068;SDS011;13887;57.196;-2.100;2023-06-01T12:21:56;12.23;;;11.83;;
22068;SDS011;13887;57.196;-2.100;2023-06-01T12:24:28;12.23;;;11.83;;
22068;SDS011;13887;57.196;-2.100;2023-06-01T12:27:11;12.33;;;11.93;;
22068;SDS011;13887;57.196;-2.100;2023-06-01T12:29:43;12.10;;;11.70;;
22068;SDS011;13887;57.196;-2.100;2023-06-01T12:32:14;11.97;;;11.57;;
22068;SDS011;13887;57.196;-2.100;2023-06-01T12:35:01;12.07;;;11.67;;
22068;SDS011;13887;57.196;-2.100;2023-06-01T12:37:29;12.17;;;11.77;;
22068;SDS011;13887;57.196;-2.100;2023-06-01T12:39:57;12.60;;;12.20;;
22068;SDS011;13887;57.196;-2.100;2023-06-01T12:42:37;12.20;;;11.80;;
22068;SDS011;13887;57.196;-2.100;2023-06-01T12:45:05;12.53;;;12.13;;
22068;SDS011;13887;57.196;-2.100;2023-06-01T12:47:40;12.67;;;12.27;;
22068;SDS011;13887;57.196;-2.100;2023-06-01T12:50:13;12.57;;;12.17;;
22068;SDS011;13887;57.196;-2.100;2023-06-01T12:52:41;12.73;;;12.33;;
22068;SDS011;13887;57.196;-2.100;2023-06-01T12:55:10;12.67;;;12.27;;
22068;SDS011;13887;57.196;-2.100;2023-06-01T12:57:37;12.60;;;12.20;;
22068;SDS011;13887;57.196;-2.100;2023-06-01T13:00:08;12.80;;;12.40;;
22068;SDS011;13887;57.196;-2.100;2023-06-01T13:02:36;12.83;;;12.43;;
22068;SDS011;13887;57.196;-2.100;2023-06-01T13:05:04;13.03;;;12.63;;
22068;SDS011;13887;57.196;-2.100;2023-06-01T13:07:33;12.90;;;12.50;;
22068;SDS011;13887;57.196;-2.100;2023-06-01T13:10:01;12.77;;;12.37;;
22068;SDS011;13887;57.196;-2.100;2023-06-01T13:12:28;12.80;;;12.40;;
22068;SDS011;13887;57.196;-2.100;2023-06-01T13:14:55;12.73;;;12.33;;
22068;SDS011;13887;57.196;-2.100;2023-06-01T13:17:24;13.10;;;12.70;;
22068;SDS011;13887;57.196;-2.100;2023-06-01T13:19:54;13.13;;;12.73;;
22068;SDS011;13887;57.196;-2.100;2023-06-01T13:22:22;12.37;;;11.97;;
22068;SDS011;13887;57.196;-2.100;2023-06-01T13:24:49;12.63;;;12.23;;
22068;SDS011;13887;57.196;-2.100;2023-06-01T13:27:19;12.43;;;12.03;;
22068;SDS011;13887;57.196;-2.100;2023-06-01T13:29:47;12.20;;;11.80;;
22068;SDS011;13887;57.196;-2.100;2023-06-01T13:32:14;11.90;;;11.50;;
22068;SDS011;13887;57.196;-2.100;2023-06-01T13:34:42;12.17;;;11.77;;
22068;SDS011;13887;57.196;-2.100;2023-06-01T13:37:09;12.63;;;12.23;;
22068;SDS011;13887;57.196;-2.100;2023-06-01T13:39:37;12.00;;;11.60;;
22068;SDS011;13887;57.196;-2.100;2023-06-01T13:42:05;12.10;;;11.70;;
22068;SDS011;13887;57.196;-2.100;2023-06-01T13:44:33;12.57;;;12.17;;
22068;SDS011;13887;57.196;-2.100;2023-06-01T13:47:00;12.17;;;11.77;;
22068;SDS011;13887;57.196;-2.100;2023-06-01T13:49:28;12.07;;;11.67;;
22068;SDS011;13887;57.196;-2.100;2023-06-01T13:51:55;11.87;;;11.47;;
22068;SDS011;13887;57.196;-2.100;2023-06-01T13:54:23;12.13;;;11.73;;
22068;SDS011;13887;57.196;-2.100;2023-06-01T13:56:50;11.90;;;11.50;;
22068;SDS011;13887;57.196;-2.100;2023-06-01T13:59:17;11.80;;;11.40;;
22068;SDS011;13887;57.196;-2.100;2023-06-01T14:01:45;11.73;;;11.33;;
22068;SDS011;13887;57.196;-2.100;2023-06-01T14:04:13;11.90;;;11.50;;
22068;SDS011;13887;57.196;-2.100;2023-06-01T14:06:40;11.47;;;11.07;;
22068;SDS011;13887;57.196;-2.100;2023-06-01T14:09:07;11.67;;;11.27;;
22068;SDS011;13887;57.196;-2.100;2023-06-01T14:11:34;11.80;;;11.40;;
22068;SDS011;13887;57.196;-2.100;2023-06-01T14:14:01;11.57;;;11.17;;
22068;SDS011;13887;57.196;-2.100;2023-06-01T14:16:30;11.67;;;11.27;;
22068;SDS011;13887;57.196;-2.100;2023-06-01T14:18:57;11.47;;;11.07;;
22068;SDS011;13887;57.196;-2.100;2023-06-01T14:21:25;11.80;;;11.40;;
22068;SDS011;13887;57.196;-2.100;2023-06-01T14:23:53;11.80;;;11.40;;
22068;SDS011;13887;57.196;-2.100;2023-06-01T14:26:22;11.70;;;11.30;;
22068;SDS011;13887;57.196;-2.100;2023-06-01T14:28:50;11.50;;;11.10;;
22068;SDS011;13887;57.196;-2.100;2023-06-01T14:31:18;11.90;;;11.50;;
22068;SDS011;13887;57.196;-2.100;2023-06-01T14:33:47;11.77;;;11.37;;
22068;SDS011;13887;57.196;-2.100;2023-06-01T14:36:15;11.53;;;11.13;;
22068;SDS011;13887;57.196;-2.100;2023-06-01T14:38:43;11.87;;;11.47;;
22068;SDS011;13887;57.196;-2.100;2023-06-01T14:41:11;11.90;;;11.50;;
22068;SDS011;13887;57.196;-2.100;2023-06-01T14:43:38;11.57;;;11.17;;
22068;SDS011;13887;57.196;-2.100;2023-06-01T14:46:05;11.60;;;11.20;;
22068;SDS011;13887;57.196;-2.100;2023-06-01T14:48:33;11.33;;;10.93;;
22068;SDS011;13887;57.196;-2.100;2023-06-01T14:51:02;11.33;;;10.97;;
22068;SDS011;13887;57.196;-2.100;2023-06-01T14:53:30;11.23;;;10.90;;
22068;SDS011;13887;57.196;-2.100;2023-06-01T14:55:57;12.07;;;11.67;;
22068;SDS011;13887;57.196;-2.100;2023-06-01T14:58:24;11.90;;;11.50;;
22068;SDS011;13887;57.196;-2.100;2023-06-01T15:00:51;11.40;;;11.00;;
22068;SDS011;13887;57.196;-2.100;2023-06-01T15:03:19;11.60;;;11.20;;
22068;SDS011;13887;57.196;-2.100;2023-06-01T15:05:47;11.07;;;10.77;;
22068;SDS011;13887;57.196;-2.100;2023-06-01T15:08:14;11.00;;;10.70;;
22068;SDS011;13887;57.196;-2.100;2023-06-01T15:10:41;11.80;;;11.40;;
22068;SDS011;13887;57.196;-2.100;2023-06-01T15:13:11;11.33;;;10.97;;
22068;SDS011;13887;57.196;-2.100;2023-06-01T15:15:39;11.67;;;11.27;;
22068;SDS011;13887;57.196;-2.100;2023-06-01T15:18:08;11.67;;;11.27;;
22068;SDS011;13887;57.196;-2.100;2023-06-01T15:20:35;11.90;;;11.50;;